Time;durP1;ratioP1;P1;durP2;ratioP2;P2;SDS_P1;SDS_P2;PMS_P1;PMS_P2;Temp;Humidity;BMP_temperature;BMP_pressure;BME280_temperature;BME280_humidity;BME280_pressure;Samples;Min_cycle;Max_cycle;Signal;HPM_P1;HPM_P2
2022/07/06 00:01:01;;;;;;;4.38;3.05;;;;;;;13.64;69.20;102395.97;4990820;28;20026;-71
2022/07/06 00:03:26;;;;;;;7.70;3.28;;;;;;;13.67;68.56;102389.28;4993496;28;20085;-74
2022/07/06 00:05:51;;;;;;;5.20;3.22;;;;;;;13.63;68.58;102388.03;4991844;28;20115;-73
2022/07/06 00:08:17;;;;;;;6.18;3.30;;;;;;;13.64;68.31;102387.81;4992491;28;20030;-73
2022/07/06 00:10:43;;;;;;;4.32;2.70;;;;;;;13.63;68.80;102383.44;4993118;28;20205;-73
2022/07/06 00:13:09;;;;;;;3.65;2.80;;;;;;;13.57;68.45;102389.72;4992317;28;20351;-70
2022/07/06 00:15:34;;;;;;;8.40;3.40;;;;;;;13.50;68.95;102394.31;4992868;28;20045;-72
2022/07/06 00:17:59;;;;;;;6.05;3.22;;;;;;;13.52;68.82;102386.75;4993312;28;20029;-72
2022/07/06 00:20:24;;;;;;;6.20;3.15;;;;;;;13.49;68.98;102392.63;4993177;28;20034;-73
2022/07/06 00:22:50;;;;;;;7.55;3.30;;;;;;;13.45;69.29;102396.78;4991580;28;20023;-72
2022/07/06 00:25:15;;;;;;;7.85;3.30;;;;;;;13.41;69.51;102398.25;5010859;28;20030;-71
2022/07/06 00:27:41;;;;;;;4.78;3.10;;;;;;;13.40;70.17;102394.69;5012857;28;20475;-71
2022/07/06 00:30:07;;;;;;;5.45;3.47;;;;;;;13.36;70.74;102398.03;5012824;28;20072;-73
2022/07/06 00:32:32;;;;;;;6.85;3.28;;;;;;;13.31;70.54;102395.91;5009054;28;20026;-71
2022/07/06 00:34:57;;;;;;;4.22;3.20;;;;;;;13.30;70.11;102395.06;4993134;28;20022;-71
2022/07/06 00:37:22;;;;;;;5.40;3.30;;;;;;;13.34;70.46;102389.25;4993024;28;20573;-72
2022/07/06 00:39:48;;;;;;;6.65;3.47;;;;;;;13.27;70.24;102389.19;5013064;28;20096;-72
2022/07/06 00:42:13;;;;;;;3.67;3.17;;;;;;;13.29;70.70;102398.81;5016364;28;20104;-73
2022/07/06 00:44:38;;;;;;;8.13;3.92;;;;;;;13.29;70.42;102396.09;5000798;28;20022;-71
2022/07/06 00:47:03;;;;;;;4.82;3.00;;;;;;;13.20;70.99;102400.06;4996973;28;20159;-71
2022/07/06 00:52:13;;;;;;;4.88;3.30;;;;;;;13.25;70.88;102392.09;4996876;28;20045;-71
2022/07/06 00:54:41;;;;;;;5.05;3.60;;;;;;;13.16;71.62;102395.22;4995054;28;20026;-72
2022/07/06 00:57:06;;;;;;;5.65;3.65;;;;;;;13.18;71.66;102401.28;4996669;28;20026;-71
2022/07/06 00:59:31;;;;;;;5.88;3.47;;;;;;;13.12;71.00;102392.09;4996237;28;20032;-71
2022/07/06 01:01:58;;;;;;;11.15;3.70;;;;;;;13.10;71.35;102396.88;4994338;28;20022;-71
2022/07/06 01:04:23;;;;;;;4.97;3.58;;;;;;;12.97;72.01;102391.41;5011842;28;20030;-73
2022/07/06 01:06:48;;;;;;;4.90;3.13;;;;;;;13.03;71.59;102396.00;4994299;28;20041;-74
2022/07/06 01:09:14;;;;;;;6.50;3.90;;;;;;;12.92;71.83;102395.59;4994333;28;20030;-73
2022/07/06 01:11:39;;;;;;;7.15;3.70;;;;;;;12.88;71.84;102391.59;4996260;28;20357;-71
2022/07/06 01:14:05;;;;;;;6.15;3.70;;;;;;;12.88;71.77;102391.59;4996396;28;20026;-71
2022/07/06 01:16:31;;;;;;;5.55;3.63;;;;;;;12.83;72.01;102393.22;4996152;28;20057;-72
2022/07/06 01:18:56;;;;;;;8.05;3.83;;;;;;;12.79;72.18;102392.81;4996396;28;20019;-71
2022/07/06 01:21:22;;;;;;;8.40;3.97;;;;;;;12.73;72.43;102399.88;4996643;28;20113;-72
2022/07/06 01:23:48;;;;;;;7.40;3.88;;;;;;;12.77;72.67;102393.00;4995187;28;20033;-74
2022/07/06 01:26:15;;;;;;;7.25;4.05;;;;;;;12.66;73.20;102381.88;4996193;28;20450;-72
2022/07/06 01:28:41;;;;;;;10.60;3.88;;;;;;;12.62;73.21;102388.72;4995017;28;20033;-74
2022/07/06 01:31:18;;;;;;;5.18;3.92;;;;;;;12.65;73.15;102393.75;4994796;28;20053;-71
2022/07/06 01:33:43;;;;;;;6.88;3.60;;;;;;;12.63;73.76;102388.53;4995866;28;20362;-71
2022/07/06 01:36:09;;;;;;;5.75;4.40;;;;;;;12.57;73.99;102389.34;4994754;28;20022;-73
2022/07/06 01:38:56;;;;;;;5.53;4.13;;;;;;;12.61;73.77;102395.22;5009998;28;20057;-73
2022/07/06 01:41:22;;;;;;;6.85;4.20;;;;;;;12.52;74.32;102389.94;5015508;28;20121;-71
2022/07/06 01:43:47;;;;;;;8.73;4.43;;;;;;;12.45;75.08;102391.78;5014960;28;20105;-73
2022/07/06 01:46:13;;;;;;;9.73;4.75;;;;;;;12.40;75.35;102391.53;5015472;28;20373;-72
2022/07/06 01:48:39;;;;;;;7.22;4.95;;;;;;;12.33;76.22;102393.38;5014748;28;20026;-72
2022/07/06 01:51:04;;;;;;;7.63;4.50;;;;;;;12.24;76.47;102387.25;5000783;28;20060;-74
2022/07/06 01:53:30;;;;;;;7.38;4.72;;;;;;;12.26;77.21;102389.75;4977299;28;20522;-73
2022/07/06 01:55:55;;;;;;;6.22;4.57;;;;;;;12.22;77.64;102387.44;4976158;28;20027;-71
2022/07/06 01:58:21;;;;;;;5.70;4.50;;;;;;;12.19;78.08;102385.13;4979632;28;20110;-72
2022/07/06 02:00:46;;;;;;;6.22;4.20;;;;;;;12.23;78.01;102389.13;4993319;28;20030;-70
2022/07/06 02:03:12;;;;;;;6.13;4.38;;;;;;;12.21;78.38;102391.22;4995629;28;20022;-73
2022/07/06 02:05:37;;;;;;;6.55;4.70;;;;;;;12.22;78.83;102387.44;4993994;28;20053;-71
2022/07/06 02:08:02;;;;;;;8.20;4.55;;;;;;;12.19;79.08;102393.28;4994011;28;20034;-71
2022/07/06 02:10:27;;;;;;;6.60;4.80;;;;;;;12.13;79.63;102399.50;4994735;28;20490;-73
2022/07/06 02:12:53;;;;;;;8.55;4.85;;;;;;;12.07;80.30;102394.84;5002660;28;20458;-71
2022/07/06 02:15:18;;;;;;;6.40;5.10;;;;;;;11.95;81.67;102393.72;4994905;28;20042;-73
2022/07/06 02:17:43;;;;;;;5.57;5.07;;;;;;;11.88;82.06;102394.47;4995140;28;20026;-73
2022/07/06 02:20:09;;;;;;;8.95;5.50;;;;;;;11.80;83.29;102391.88;4995009;28;20027;-72
2022/07/06 02:22:35;;;;;;;7.95;4.97;;;;;;;11.87;83.50;102387.38;4995015;28;20037;-71
2022/07/06 02:25:00;;;;;;;8.48;5.63;;;;;;;11.91;83.48;102392.41;4994842;28;20022;-72
2022/07/06 02:27:26;;;;;;;11.52;5.88;;;;;;;11.96;83.24;102390.00;4993950;28;20026;-73
2022/07/06 02:29:51;;;;;;;7.03;5.05;;;;;;;12.01;82.56;102391.06;4994918;28;20026;-78
2022/07/06 02:32:16;;;;;;;8.35;5.18;;;;;;;12.03;82.46;102391.72;4995616;28;20453;-72
2022/07/06 02:34:41;;;;;;;8.90;4.78;;;;;;;12.09;81.78;102381.91;4993909;28;20149;-70
2022/07/06 02:37:07;;;;;;;9.63;5.25;;;;;;;12.16;81.80;102388.25;4993925;28;20079;-73
2022/07/06 02:39:32;;;;;;;7.22;4.72;;;;;;;12.18;81.14;102380.75;4994439;28;20470;-70
2022/07/06 02:41:57;;;;;;;9.77;4.97;;;;;;;12.23;81.07;102388.31;5007271;28;20029;-71
2022/07/06 02:44:22;;;;;;;10.05;5.30;;;;;;;12.25;81.25;102386.22;4975370;28;20113;-70
2022/07/06 02:46:48;;;;;;;7.43;5.35;;;;;;;12.27;80.38;102391.44;4975325;28;20030;-72
2022/07/06 02:49:13;;;;;;;10.57;5.25;;;;;;;12.25;81.21;102385.41;4975535;28;20022;-69
2022/07/06 02:51:38;;;;;;;8.07;5.60;;;;;;;12.21;81.31;102388.50;4974986;28;20037;-71
2022/07/06 02:54:03;;;;;;;10.55;5.03;;;;;;;12.24;80.86;102384.53;4975187;28;20110;-70
2022/07/06 02:56:29;;;;;;;11.27;5.43;;;;;;;12.28;80.59;102385.00;4975709;28;20027;-70
2022/07/06 02:58:54;;;;;;;13.35;5.95;;;;;;;12.25;80.57;102402.50;4993384;28;20037;-70
2022/07/06 03:01:19;;;;;;;11.25;5.50;;;;;;;12.29;79.95;102395.66;4991376;28;20058;-70
2022/07/06 03:03:45;;;;;;;11.40;5.32;;;;;;;12.28;80.85;102402.13;4994232;28;20412;-73
2022/07/06 03:06:10;;;;;;;6.90;5.00;;;;;;;12.30;80.29;102400.03;4994384;28;20030;-70
2022/07/06 03:08:35;;;;;;;8.82;5.22;;;;;;;12.31;80.43;102387.31;4994362;28;20474;-71
2022/07/06 03:11:01;;;;;;;7.68;5.00;;;;;;;12.28;80.63;102385.00;4993478;28;20029;-71
2022/07/06 03:13:27;;;;;;;8.60;5.50;;;;;;;12.28;80.97;102393.97;4993837;28;20041;-69
2022/07/06 03:15:52;;;;;;;10.52;5.05;;;;;;;12.29;80.43;102394.78;4993807;28;20152;-69
2022/07/06 03:18:17;;;;;;;7.38;5.10;;;;;;;12.31;81.17;102403.59;4994202;28;20057;-69
2022/07/06 03:20:43;;;;;;;8.48;4.80;;;;;;;12.21;81.39;102399.38;4991450;28;20454;-70
2022/07/06 03:23:08;;;;;;;9.05;5.18;;;;;;;12.24;81.49;102400.81;4993883;28;20038;-70
2022/07/06 03:25:33;;;;;;;6.35;5.05;;;;;;;12.25;81.56;102407.09;4993919;28;20029;-69
2022/07/06 03:27:59;;;;;;;8.40;4.90;;;;;;;12.22;81.17;102409.16;4992934;28;20066;-72
2022/07/06 03:30:24;;;;;;;10.90;5.47;;;;;;;12.22;81.57;102402.91;4993959;28;20418;-72
2022/07/06 03:32:49;;;;;;;7.15;5.07;;;;;;;12.23;81.05;102402.72;4993859;28;20526;-71
2022/07/06 03:35:15;;;;;;;8.52;4.68;;;;;;;12.22;81.34;102401.03;4992490;28;20030;-72
2022/07/06 03:37:40;;;;;;;7.80;4.97;;;;;;;12.18;82.02;102401.63;4993612;28;20054;-72
2022/07/06 03:40:06;;;;;;;7.28;5.80;;;;;;;12.15;81.74;102396.59;4994004;28;20022;-72
2022/07/06 03:42:31;;;;;;;7.75;5.00;;;;;;;12.10;82.51;102399.88;4997421;28;20031;-69
2022/07/06 03:44:57;;;;;;;8.23;4.90;;;;;;;12.18;81.46;102396.19;4993134;28;20117;-72
2022/07/06 03:47:22;;;;;;;7.35;5.03;;;;;;;12.20;81.49;102402.28;4993426;28;20041;-72
2022/07/06 03:49:47;;;;;;;7.93;5.00;;;;;;;12.14;81.81;102401.19;4993403;28;20022;-72
2022/07/06 03:52:13;;;;;;;8.80;5.00;;;;;;;12.11;82.26;102403.44;4993627;28;20365;-72
2022/07/06 03:54:38;;;;;;;7.53;4.75;;;;;;;12.18;82.21;102407.03;4993370;28;20026;-72
2022/07/06 03:57:03;;;;;;;8.02;5.05;;;;;;;12.18;81.78;102407.91;4992427;28;20080;-70
2022/07/06 03:59:29;;;;;;;6.10;4.63;;;;;;;12.11;82.24;102406.16;4993503;28;20022;-72
2022/07/06 04:01:54;;;;;;;8.90;4.80;;;;;;;12.12;83.08;102395.09;4990887;28;20022;-72
2022/07/06 04:04:19;;;;;;;6.72;4.90;;;;;;;12.15;82.52;102394.72;4991573;28;20034;-72
2022/07/06 04:06:45;;;;;;;7.05;4.80;;;;;;;12.15;82.02;102391.16;4993203;28;20072;-71
2022/07/06 04:09:10;;;;;;;7.60;4.65;;;;;;;12.18;82.02;102397.06;4993391;28;20405;-71
2022/07/06 04:11:36;;;;;;;9.95;4.80;;;;;;;12.18;82.03;102399.75;4990796;28;20101;-71
2022/07/06 04:14:01;;;;;;;8.57;5.25;;;;;;;12.20;81.74;102394.13;4992872;28;20061;-72
2022/07/06 04:16:26;;;;;;;6.95;4.93;;;;;;;12.29;81.46;102394.78;4993115;28;20042;-70
2022/07/06 04:18:51;;;;;;;7.55;5.20;;;;;;;12.30;81.12;102394.59;4993117;28;20030;-71
2022/07/06 04:21:17;;;;;;;9.52;4.78;;;;;;;12.27;81.26;102392.28;4993557;28;20022;-69
2022/07/06 04:23:42;;;;;;;7.57;4.80;;;;;;;12.30;81.61;102385.63;4992754;28;20023;-71
2022/07/06 04:26:07;;;;;;;7.32;5.10;;;;;;;12.30;81.64;102380.19;4997355;28;20431;-71
2022/07/06 04:28:32;;;;;;;9.13;5.00;;;;;;;12.34;81.76;102378.78;4992259;28;20529;-72
2022/07/06 04:30:58;;;;;;;10.27;5.10;;;;;;;12.38;81.63;102385.50;4992997;28;20121;-70
2022/07/06 04:33:23;;;;;;;6.20;4.90;;;;;;;12.35;81.70;102384.00;4993030;28;20026;-72
2022/07/06 04:35:48;;;;;;;5.75;4.50;;;;;;;12.36;81.76;102385.66;4992170;28;20065;-69
2022/07/06 04:38:14;;;;;;;8.23;4.88;;;;;;;12.35;82.42;102370.44;4993377;28;20468;-70
2022/07/06 04:40:39;;;;;;;7.00;4.60;;;;;;;12.35;82.56;102375.00;5000071;28;20025;-70
2022/07/06 04:43:04;;;;;;;6.95;4.72;;;;;;;12.38;82.64;102380.06;5011454;28;20373;-70
2022/07/06 04:45:29;;;;;;;7.40;4.45;;;;;;;12.39;82.80;102382.56;5012714;28;20025;-72
2022/07/06 04:47:55;;;;;;;10.23;4.82;;;;;;;12.45;83.07;102378.19;5012428;28;20022;-70
2022/07/06 04:50:20;;;;;;;8.52;4.80;;;;;;;12.48;81.99;102380.50;4996008;28;20030;-72
2022/07/06 04:52:45;;;;;;;7.20;4.82;;;;;;;12.52;83.05;102381.78;4976011;28;20095;-70
2022/07/06 04:55:11;;;;;;;8.80;5.10;;;;;;;12.61;82.71;102384.38;4972324;28;20026;-69
2022/07/06 04:57:36;;;;;;;8.77;4.90;;;;;;;12.63;82.65;102382.28;5000280;28;20034;-71
2022/07/06 05:00:04;;;;;;;8.90;5.00;;;;;;;12.66;81.99;102395.44;5012146;28;20018;-70
2022/07/06 05:02:29;;;;;;;7.45;4.80;;;;;;;12.70;81.81;102385.88;5010165;28;20095;-71
2022/07/06 05:04:54;;;;;;;6.70;4.55;;;;;;;12.77;81.72;102384.84;5012249;28;20108;-70
2022/07/06 05:07:20;;;;;;;7.85;4.45;;;;;;;12.85;81.46;102383.84;5008699;28;20040;-71
2022/07/06 05:09:45;;;;;;;7.60;4.43;;;;;;;12.92;80.99;102395.59;5010898;28;20029;-70
2022/07/06 05:12:10;;;;;;;7.57;4.45;;;;;;;12.95;81.35;102399.75;5009076;28;20034;-70
2022/07/06 05:14:36;;;;;;;7.88;4.13;;;;;;;13.01;81.38;102403.53;5010554;28;20026;-72
2022/07/06 05:17:02;;;;;;;6.75;4.55;;;;;;;13.06;81.47;102403.78;5001601;28;20061;-72
2022/07/06 05:19:27;;;;;;;10.32;4.90;;;;;;;13.12;82.39;102401.09;4973236;28;20378;-72
2022/07/06 05:21:53;;;;;;;11.23;5.10;;;;;;;13.21;82.86;102406.31;4972850;28;20031;-72
2022/07/06 05:24:18;;;;;;;6.45;4.55;;;;;;;13.31;82.27;102406.78;4974479;28;20031;-70
2022/07/06 05:26:44;;;;;;;11.50;4.97;;;;;;;13.33;82.30;102404.72;4976595;28;20026;-73
2022/07/06 05:29:09;;;;;;;12.75;5.00;;;;;;;13.42;80.95;102406.22;4976831;28;20128;-70
2022/07/06 05:31:35;;;;;;;7.30;4.50;;;;;;;13.52;80.79;102407.69;4981923;28;20527;-71
2022/07/06 05:34:00;;;;;;;9.82;4.72;;;;;;;13.54;81.36;102406.44;5015349;28;20113;-70
2022/07/06 05:36:25;;;;;;;12.25;4.72;;;;;;;13.58;80.88;102396.81;5011491;28;20033;-71
2022/07/06 05:38:50;;;;;;;8.55;4.25;;;;;;;13.64;80.68;102406.88;4976387;28;20031;-73
2022/07/06 05:41:16;;;;;;;7.65;4.15;;;;;;;13.75;81.60;102412.75;4976280;28;20023;-73
2022/07/06 05:43:41;;;;;;;7.68;4.22;;;;;;;13.81;80.55;102409.19;4976187;28;20399;-73
2022/07/06 05:46:06;;;;;;;6.65;4.32;;;;;;;13.89;80.36;102403.56;4977485;28;20035;-71
2022/07/06 05:51:15;;;;;;;7.60;3.85;;;;;;;14.02;80.80;102404.59;4995541;28;20493;-72
2022/07/06 05:53:40;;;;;;;6.05;3.80;;;;;;;14.15;80.40;102416.31;4994487;28;20031;-71
2022/07/06 05:56:06;;;;;;;6.25;3.88;;;;;;;14.20;79.55;102410.22;4995398;28;20026;-72
2022/07/06 05:58:31;;;;;;;13.20;4.00;;;;;;;14.25;79.20;102413.16;4993609;28;20028;-70
2022/07/06 06:00:56;;;;;;;5.68;3.33;;;;;;;14.29;77.28;102416.28;4990623;28;20042;-72
2022/07/06 06:03:22;;;;;;;7.90;3.60;;;;;;;14.33;77.85;102421.09;4995363;28;20101;-70
2022/07/06 06:05:47;;;;;;;4.75;3.35;;;;;;;14.42;76.76;102416.28;4995277;28;20026;-70
2022/07/06 06:08:13;;;;;;;5.68;3.53;;;;;;;14.44;77.92;102416.88;4994061;28;20551;-70
2022/07/06 06:10:38;;;;;;;6.18;3.30;;;;;;;14.49;77.90;102422.56;4981961;28;20035;-73
2022/07/06 06:13:03;;;;;;;7.70;3.10;;;;;;;14.59;76.73;102419.38;4975789;28;20031;-70
2022/07/06 06:15:29;;;;;;;4.63;3.33;;;;;;;14.61;76.80;102416.47;5001154;28;20425;-70
2022/07/06 06:17:54;;;;;;;3.30;2.65;;;;;;;14.61;75.33;102411.03;5014388;28;20428;-70
2022/07/06 06:20:19;;;;;;;5.88;2.45;;;;;;;14.62;76.32;102426.31;5014879;28;20122;-72
2022/07/06 06:22:49;;;;;;;5.68;2.65;;;;;;;14.62;75.33;102424.44;4993672;28;20053;-70
2022/07/06 06:25:16;;;;;;;6.03;2.95;;;;;;;14.59;76.08;102413.94;4995167;28;20085;-72
2022/07/06 06:27:42;;;;;;;3.65;2.20;;;;;;;14.59;75.43;102422.09;4995093;28;20484;-71
2022/07/06 06:30:08;;;;;;;4.20;1.85;;;;;;;14.62;74.71;102418.97;4993729;28;20026;-72
2022/07/06 06:32:33;;;;;;;4.65;2.00;;;;;;;14.61;75.39;102417.28;4994650;28;20490;-74
2022/07/06 06:34:58;;;;;;;4.78;2.53;;;;;;;14.62;75.45;102427.16;4994746;28;20033;-74
2022/07/06 06:37:24;;;;;;;3.20;1.95;;;;;;;14.67;75.37;102418.34;4995002;28;20037;-72
2022/07/06 06:39:49;;;;;;;5.80;2.30;;;;;;;14.63;75.13;102415.22;4994976;28;20022;-72
2022/07/06 06:42:14;;;;;;;6.15;2.20;;;;;;;14.65;75.05;102429.44;4994848;28;20033;-73
2022/07/06 06:44:39;;;;;;;5.78;2.10;;;;;;;14.66;75.70;102424.81;4983323;28;20031;-70
2022/07/06 06:47:05;;;;;;;4.82;2.40;;;;;;;14.65;75.76;102432.16;4975029;28;20058;-71
2022/07/06 06:49:30;;;;;;;4.97;2.55;;;;;;;14.68;75.96;102429.03;4974001;28;20022;-73
2022/07/06 06:51:55;;;;;;;8.43;2.50;;;;;;;14.67;76.40;102427.38;4975308;28;20031;-70
2022/07/06 06:54:20;;;;;;;6.28;2.58;;;;;;;14.63;76.94;102431.56;4975162;28;20101;-71
2022/07/06 06:56:46;;;;;;;6.28;2.38;;;;;;;14.67;76.27;102438.25;4975049;28;20022;-70
2022/07/06 06:59:11;;;;;;;4.22;2.20;;;;;;;14.67;76.62;102434.69;4974233;28;20031;-71
2022/07/06 07:01:36;;;;;;;11.95;2.40;;;;;;;14.67;76.96;102434.69;4972486;28;20487;-71
2022/07/06 07:04:01;;;;;;;6.50;2.20;;;;;;;14.70;76.77;102424.22;4974885;28;20029;-72
2022/07/06 07:06:27;;;;;;;2.67;1.80;;;;;;;14.79;74.45;102443.03;4980835;28;20030;-73
2022/07/06 07:08:52;;;;;;;11.80;1.90;;;;;;;14.81;74.50;102435.47;4990022;28;20030;-72
2022/07/06 07:11:17;;;;;;;4.22;1.85;;;;;;;14.91;74.32;102438.59;4977996;28;20060;-72
2022/07/06 07:13:43;;;;;;;4.05;2.00;;;;;;;14.98;74.76;102436.69;4980902;28;20442;-71
2022/07/06 07:16:08;;;;;;;4.03;1.60;;;;;;;15.10;72.92;102430.53;4986760;28;20154;-73
2022/07/06 07:18:33;;;;;;;6.55;1.40;;;;;;;15.25;72.40;102442.03;4994213;28;20045;-71
2022/07/06 07:20:59;;;;;;;4.45;1.42;;;;;;;15.36;73.18;102435.88;4984545;28;20027;-71
2022/07/06 07:23:24;;;;;;;2.30;0.98;;;;;;;15.47;70.25;102437.06;4986215;28;20361;-71
2022/07/06 07:25:49;;;;;;;4.10;1.13;;;;;;;15.51;69.35;102441.03;4993227;28;20027;-72
2022/07/06 07:28:15;;;;;;;5.80;1.10;;;;;;;15.62;69.63;102438.66;4983521;28;20027;-73
2022/07/06 07:30:40;;;;;;;2.75;1.00;;;;;;;15.70;67.23;102439.25;4993938;28;20024;-70
2022/07/06 07:33:06;;;;;;;1.85;0.85;;;;;;;15.76;66.20;102446.53;4981972;28;20027;-72
2022/07/06 07:35:31;;;;;;;2.33;0.88;;;;;;;15.83;67.27;102445.69;4973408;28;20042;-71
2022/07/06 07:37:57;;;;;;;3.33;0.80;;;;;;;15.90;63.86;102449.22;4978595;28;20108;-72
2022/07/06 07:40:22;;;;;;;2.50;0.70;;;;;;;15.95;62.44;102446.63;4993894;28;20026;-72
2022/07/06 07:42:48;;;;;;;1.65;0.50;;;;;;;16.00;60.99;102448.69;4990313;28;20102;-70
2022/07/06 07:45:13;;;;;;;1.85;0.70;;;;;;;16.02;57.85;102441.97;4978467;28;20034;-73
2022/07/06 07:47:39;;;;;;;2.88;0.80;;;;;;;16.14;59.02;102447.53;4972557;28;20022;-73
2022/07/06 07:50:05;;;;;;;3.92;0.70;;;;;;;16.15;59.40;102442.91;4974499;28;20076;-72
2022/07/06 07:52:31;;;;;;;1.77;0.70;;;;;;;16.21;57.80;102452.94;5008305;28;20471;-72
2022/07/06 07:54:56;;;;;;;1.00;0.50;;;;;;;16.25;59.49;102454.16;5012994;28;20105;-72
2022/07/06 07:57:21;;;;;;;2.58;0.73;;;;;;;16.30;59.05;102440.66;4993325;28;20037;-72
2022/07/06 07:59:46;;;;;;;2.47;0.60;;;;;;;16.38;60.08;102451.31;4993112;28;20037;-71
2022/07/06 08:02:12;;;;;;;0.82;0.57;;;;;;;16.42;58.16;102449.78;4991204;28;20117;-70
2022/07/06 08:04:37;;;;;;;1.80;0.60;;;;;;;16.50;58.70;102440.50;4993025;28;20022;-72
2022/07/06 08:07:03;;;;;;;1.95;0.60;;;;;;;16.53;59.23;102439.19;4992809;28;20028;-70
2022/07/06 08:09:28;;;;;;;3.13;0.50;;;;;;;16.54;58.80;102429.94;4989949;28;20026;-71
2022/07/06 08:11:53;;;;;;;1.50;0.73;;;;;;;16.61;58.66;102427.97;4992470;28;20065;-71
2022/07/06 08:14:18;;;;;;;2.90;0.73;;;;;;;16.60;57.63;102429.03;4984618;28;20034;-71
2022/07/06 08:16:44;;;;;;;3.90;0.95;;;;;;;16.62;58.58;102418.69;4978195;28;20468;-71
2022/07/06 08:19:09;;;;;;;0.70;0.50;;;;;;;16.70;59.03;102429.34;4992988;28;20023;-70
2022/07/06 08:21:35;;;;;;;2.25;0.60;;;;;;;16.75;57.50;102429.47;4991003;28;20040;-70
2022/07/06 08:24:01;;;;;;;3.05;0.80;;;;;;;16.88;56.68;102430.41;4979653;28;20478;-71
2022/07/06 08:26:27;;;;;;;2.92;0.80;;;;;;;16.86;57.96;102427.88;4977786;28;20045;-70
2022/07/06 08:28:53;;;;;;;4.07;0.80;;;;;;;16.90;57.76;102423.66;4978341;28;20030;-71
2022/07/06 08:31:18;;;;;;;3.92;0.98;;;;;;;17.02;56.84;102425.63;4993210;28;20023;-70
2022/07/06 08:33:44;;;;;;;2.03;0.70;;;;;;;17.00;57.25;102423.13;4991964;28;20030;-71
2022/07/06 08:36:09;;;;;;;4.25;0.80;;;;;;;17.04;58.20;102413.38;4992816;28;20030;-71
2022/07/06 08:38:34;;;;;;;10.85;1.20;;;;;;;16.99;56.62;102422.28;4992759;28;20023;-70
2022/07/06 08:41:00;;;;;;;4.75;0.93;;;;;;;16.90;56.64;102428.31;4992858;28;20442;-71
2022/07/06 08:43:25;;;;;;;2.08;1.00;;;;;;;16.97;57.42;102424.41;4993113;28;20072;-71
2022/07/06 08:45:53;;;;;;;4.78;0.70;;;;;;;17.00;57.05;102418.47;4990975;28;20084;-71
2022/07/06 08:48:22;;;;;;;4.95;0.95;;;;;;;17.11;57.49;102425.06;4989485;28;20054;-71
2022/07/06 08:50:48;;;;;;;2.78;0.90;;;;;;;17.15;58.01;102411.75;4991962;28;20026;-71
2022/07/06 08:53:14;;;;;;;4.22;0.70;;;;;;;17.21;57.68;102418.22;4991527;28;20037;-71
2022/07/06 08:55:40;;;;;;;2.22;0.82;;;;;;;17.26;57.67;102421.09;4992874;28;20022;-71
2022/07/06 08:58:07;;;;;;;3.60;0.63;;;;;;;17.16;57.16;102424.38;4992408;28;20026;-71
2022/07/06 09:00:33;;;;;;;1.83;0.70;;;;;;;17.06;58.27;102416.75;4994886;28;20030;-71
2022/07/06 09:02:59;;;;;;;1.40;0.50;;;;;;;17.03;57.38;102419.06;4990267;28;20033;-71
2022/07/06 09:05:25;;;;;;;1.73;0.60;;;;;;;17.06;58.09;102415.88;4984221;28;20038;-71
2022/07/06 09:07:51;;;;;;;3.13;1.20;;;;;;;17.06;58.02;102411.28;4977176;28;20056;-71
2022/07/06 09:10:19;;;;;;;1.67;0.68;;;;;;;17.18;58.23;102409.41;4976511;28;20027;-71
2022/07/06 09:12:45;;;;;;;4.03;1.02;;;;;;;17.30;58.50;102408.63;4976722;28;20033;-71
2022/07/06 09:15:11;;;;;;;3.60;0.85;;;;;;;17.41;57.90;102409.72;4976738;28;20050;-71
2022/07/06 09:17:41;;;;;;;1.83;0.80;;;;;;;17.46;55.70;102401.66;4990217;28;20468;-70
2022/07/06 09:20:09;;;;;;;1.17;0.80;;;;;;;17.58;55.27;102401.69;4982119;28;20038;-71
2022/07/06 09:22:35;;;;;;;3.35;0.63;;;;;;;17.75;55.33;102405.41;4987830;28;20050;-71
2022/07/06 09:25:12;;;;;;;3.67;0.77;;;;;;;17.87;56.00;102406.28;4976685;28;20045;-71
2022/07/06 09:27:39;;;;;;;1.13;0.60;;;;;;;17.92;54.30;102405.59;4979125;28;20466;-71
2022/07/06 09:30:06;;;;;;;2.78;0.60;;;;;;;17.90;54.28;102407.72;4992788;28;20038;-71
2022/07/06 09:32:38;;;;;;;3.70;0.82;;;;;;;18.02;55.62;102418.69;4995963;28;20030;-71
2022/07/06 09:35:04;;;;;;;1.65;0.63;;;;;;;18.06;54.68;102414.41;4993209;28;20431;-71
2022/07/06 09:37:30;;;;;;;3.28;0.65;;;;;;;18.08;55.33;102416.94;4977425;28;20113;-71
2022/07/06 09:39:55;;;;;;;1.90;0.68;;;;;;;18.06;54.07;102417.16;4976545;28;20019;-71
2022/07/06 09:42:26;;;;;;;8.35;1.00;;;;;;;17.95;52.83;102415.22;4979464;28;20035;-71
2022/07/06 09:44:51;;;;;;;3.37;0.80;;;;;;;17.92;52.91;102419.31;5011052;28;20073;-71
2022/07/06 09:47:17;;;;;;;4.70;0.85;;;;;;;17.92;52.58;102413.81;4986868;28;20026;-71
2022/07/06 09:49:43;;;;;;;1.17;0.55;;;;;;;17.86;51.82;102420.19;4995493;28;20370;-71
2022/07/06 09:52:10;;;;;;;2.55;0.65;;;;;;;17.86;52.80;102425.66;4995567;28;20026;-71
2022/07/06 09:54:38;;;;;;;3.95;0.90;;;;;;;17.88;51.65;102429.84;4994308;28;20084;-71
2022/07/06 09:57:05;;;;;;;2.72;0.75;;;;;;;17.88;52.37;102421.63;4985881;28;20035;-71
2022/07/06 09:59:33;;;;;;;3.40;0.70;;;;;;;17.95;52.73;102429.78;4976916;28;20428;-72
2022/07/06 10:02:01;;;;;;;2.20;0.75;;;;;;;17.97;53.09;102427.63;4991658;28;20404;-71
2022/07/06 10:04:28;;;;;;;4.68;0.95;;;;;;;17.95;52.55;102428.94;4994162;28;20416;-71
2022/07/06 10:06:55;;;;;;;2.75;0.77;;;;;;;18.00;54.33;102423.59;4995588;28;20046;-71
2022/07/06 10:09:23;;;;;;;3.00;0.73;;;;;;;18.03;53.03;102429.41;4986531;28;20034;-71
2022/07/06 10:11:52;;;;;;;2.10;0.75;;;;;;;18.02;51.81;102424.19;4976315;28;20354;-71
2022/07/06 10:14:21;;;;;;;3.28;0.98;;;;;;;17.99;52.00;102422.72;4981779;28;20036;-71
2022/07/06 10:16:47;;;;;;;4.45;1.00;;;;;;;18.05;53.02;102430.00;4992082;28;20049;-71
2022/07/06 10:19:13;;;;;;;3.58;0.60;;;;;;;18.11;52.76;102433.72;4989849;28;20049;-71
2022/07/06 10:21:40;;;;;;;3.75;0.80;;;;;;;18.11;51.58;102436.44;4974974;28;20035;-71
2022/07/06 10:24:07;;;;;;;7.18;0.80;;;;;;;18.20;51.51;102436.94;4975199;28;20034;-71
2022/07/06 10:26:34;;;;;;;8.63;0.90;;;;;;;18.14;51.08;102433.22;4975503;28;20496;-71
2022/07/06 10:29:01;;;;;;;2.17;0.80;;;;;;;18.14;51.20;102432.41;4990542;28;20465;-71
2022/07/06 10:31:31;;;;;;;2.20;0.43;;;;;;;18.16;51.72;102428.38;4995102;28;20030;-71
2022/07/06 10:33:58;;;;;;;5.85;0.70;;;;;;;18.10;50.19;102428.47;4978937;28;20026;-71
2022/07/06 10:36:24;;;;;;;4.25;0.60;;;;;;;18.12;50.84;102432.66;4974252;28;20039;-71
2022/07/06 10:38:51;;;;;;;6.20;0.57;;;;;;;18.10;50.50;102431.22;4975546;28;20110;-71
2022/07/06 10:41:17;;;;;;;3.67;0.80;;;;;;;18.19;51.28;102425.16;4974973;28;20034;-71
2022/07/06 10:43:45;;;;;;;4.65;0.82;;;;;;;18.27;51.57;102431.31;4974175;28;20544;-71
2022/07/06 10:46:15;;;;;;;3.95;0.77;;;;;;;18.32;52.02;102425.97;4974759;28;20502;-71
2022/07/06 10:48:42;;;;;;;3.20;0.45;;;;;;;18.41;51.46;102419.06;4974970;28;20101;-71
2022/07/06 10:51:10;;;;;;;1.73;0.70;;;;;;;18.39;49.60;102423.97;4974401;28;20018;-71
2022/07/06 10:53:40;;;;;;;6.22;0.70;;;;;;;18.47;50.26;102425.50;4975239;28;20053;-71
2022/07/06 10:56:08;;;;;;;1.52;0.50;;;;;;;18.46;48.81;102421.91;4991602;28;20108;-71
2022/07/06 10:58:40;;;;;;;2.33;0.70;;;;;;;18.47;49.01;102420.84;4989777;28;20027;-71
2022/07/06 11:01:10;;;;;;;2.35;0.52;;;;;;;18.51;49.31;102421.19;4972579;28;20031;-71
2022/07/06 11:03:41;;;;;;;1.25;0.50;;;;;;;18.52;49.18;102411.91;4974817;28;20089;-71
2022/07/06 11:06:18;;;;;;;2.08;0.60;;;;;;;18.54;48.74;102417.97;4974503;28;20031;-71
2022/07/06 11:08:44;;;;;;;2.05;0.73;;;;;;;18.64;48.77;102414.63;4974891;28;20104;-71
2022/07/06 11:11:16;;;;;;;1.52;0.50;;;;;;;18.73;49.11;102415.91;4984611;28;20041;-72
2022/07/06 11:13:43;;;;;;;2.83;0.90;;;;;;;18.71;47.50;102415.34;4981246;28;20034;-71
2022/07/06 11:16:09;;;;;;;3.45;0.90;;;;;;;18.59;48.03;102415.34;4974244;28;20101;-70
2022/07/06 11:18:45;;;;;;;5.97;0.70;;;;;;;18.41;48.46;102410.84;4974746;28;20022;-71
2022/07/06 11:21:21;;;;;;;3.08;0.68;;;;;;;18.46;49.07;102410.94;4973045;28;20030;-71
2022/07/06 11:23:48;;;;;;;5.88;1.02;;;;;;;18.52;49.55;102407.22;4974256;28;21634;-71